Time,TemperatureF,DewpointF,PressureIn,WindDirection,WindDirectionDegrees,WindSpeedMPH,WindSpeedGustMPH,Humidity,HourlyPrecipIn,Conditions,Clouds,dailyrainin,SoftwareType,DateUTC
2013-06-24 00:19:00,60.1,54.6,29.75,WSW,248,0.0,0.0,82,0.00,,,0.00,WUHU21623XXSP,2013-06-24 07:19:00,
2013-06-24 01:19:00,59.0,54.1,29.74,WNW,293,0.0,0.0,84,0.00,,,0.00,WUHU21623XXSP,2013-06-24 08:19:00,
2013-06-24 02:19:00,57.0,54.3,29.73,NW,315,6.7,6.7,91,0.00,,,0.00,WUHU21623XXSP,2013-06-24 09:19:00,
2013-06-24 03:19:00,56.1,54.3,29.73,NNW,338,6.5,6.5,94,0.00,,,0.00,WUHU21623XXSP,2013-06-24 10:19:00,
2013-06-24 04:19:00,55.0,53.8,29.75,NNW,338,0.0,0.0,96,0.00,,,0.02,WUHU21623XXSP,2013-06-24 11:19:00,
2013-06-24 05:19:00,54.3,53.1,29.75,NNW,338,0.0,0.0,96,0.00,,,0.08,WUHU21623XXSP,2013-06-24 12:19:00,
2013-06-24 06:19:00,54.3,53.4,29.74,NNW,338,0.0,0.0,97,0.00,,,0.18,WUHU21623XXSP,2013-06-24 13:19:00,
2013-06-24 07:19:00,56.1,55.2,29.74,NNW,338,0.0,0.0,97,0.00,,,0.22,WUHU21623XXSP,2013-06-24 14:19:00,
2013-06-24 08:19:00,57.4,56.5,29.74,SW,225,4.7,4.7,97,0.00,,,0.22,WUHU21623XXSP,2013-06-24 15:19:00,
2013-06-24 09:19:00,57.9,56.4,29.74,South,180,0.0,0.0,95,0.00,,,0.28,WUHU21623XXSP,2013-06-24 16:19:00,
2013-06-24 10:19:00,60.6,58.2,29.75,South,180,7.8,7.8,92,0.00,,,0.28,WUHU21623XXSP,2013-06-24 17:19:00,
2013-06-24 11:06:00,61.9,58.8,29.75,SSW,202,0.0,0.0,90,0.00,,,0.28,WUHU21623XXSP,2013-06-24 18:06:00,
2013-06-24 11:11:00,63.1,59.7,29.74,South,180,0.0,6.0,89,0.00,,,1.14,WUHU21623XXSP,2013-06-24 18:11:00,
2013-06-24 11:17:00,63.3,59.6,29.74,SSW,202,0.0,6.0,88,0.00,,,1.14,WUHU21623XXSP,2013-06-24 18:17:00,
2013-06-24 11:22:00,64.0,60.0,29.73,SSW,202,0.0,4.9,87,0.00,,,1.14,WUHU21623XXSP,2013-06-24 18:22:00,
2013-06-24 11:27:00,65.5,61.1,29.73,SSW,202,0.4,4.9,86,0.00,,,1.14,WUHU21623XXSP,2013-06-24 18:27:00,
2013-06-24 11:32:00,66.0,60.0,29.73,SSW,202,8.9,8.9,81,0.00,,,1.14,WUHU21623XXSP,2013-06-24 18:32:00,
2013-06-24 11:37:00,65.5,60.2,29.74,WSW,247,6.9,8.9,83,0.00,,,1.14,WUHU21623XXSP,2013-06-24 18:37:00,
2013-06-24 12:19:00,61.2,57.5,29.75,SW,225,8.7,8.7,88,0.00,,,0.00,WUHU21623XXSP,2013-06-24 19:19:00,
2013-06-24 13:19:00,61.3,57.9,29.76,WSW,248,6.3,6.3,89,0.00,,,0.28,WUHU21623XXSP,2013-06-24 20:19:00,
2013-06-24 14:19:00,60.4,57.4,29.76,SW,225,4.3,4.3,90,0.00,,,0.30,WUHU21623XXSP,2013-06-24 21:19:00,
2013-06-24 15:19:00,63.7,60.0,29.77,WSW,248,8.5,8.5,88,0.00,,,0.30,WUHU21623XXSP,2013-06-24 22:19:00,
2013-06-24 16:19:00,66.7,60.0,29.77,WSW,248,5.4,5.4,79,0.00,,,0.32,WUHU21623XXSP,2013-06-24 23:19:00,
2013-06-24 16:38:00,67.6,59.8,29.77,WSW,247,0.0,0.0,76,0.00,,,0.32,WUHU21623XXSP,2013-06-24 23:38:00,
2013-06-24 16:44:00,67.3,59.9,29.77,West,270,7.4,7.4,77,0.00,,,1.18,WUHU21623XXSP,2013-06-24 23:44:00,
2013-06-24 16:49:00,67.3,59.9,29.77,WSW,247,2.5,7.4,77,0.00,,,1.18,WUHU21623XXSP,2013-06-24 23:49:00,
2013-06-24 16:54:00,66.4,59.0,29.77,SW,225,5.6,7.4,77,0.00,,,1.18,WUHU21623XXSP,2013-06-24 23:54:00,
2013-06-24 16:59:00,66.0,58.6,29.77,SW,225,2.2,5.6,77,0.00,,,1.18,WUHU21623XXSP,2013-06-24 23:59:00,
2013-06-24 17:04:00,65.7,58.7,29.77,SW,225,2.2,5.6,78,0.00,,,1.18,WUHU21623XXSP,2013-06-25 00:04:00,
2013-06-24 17:09:00,64.9,58.2,29.77,South,180,0.0,7.2,79,0.00,,,1.18,WUHU21623XXSP,2013-06-25 00:09:00,
2013-06-24 17:14:00,64.8,58.5,29.77,SSW,202,6.0,7.2,80,0.00,,,1.18,WUHU21623XXSP,2013-06-25 00:14:00,
2013-06-24 17:19:00,64.4,58.1,29.76,SSW,202,7.6,7.6,80,0.00,,,1.18,WUHU21623XXSP,2013-06-25 00:19:00,
2013-06-24 17:24:00,64.0,57.7,29.76,SSW,202,6.7,7.6,80,0.00,,,1.18,WUHU21623XXSP,2013-06-25 00:24:00,
2013-06-24 17:29:00,63.7,57.7,29.76,SSW,202,0.0,6.7,81,0.00,,,1.18,WUHU21623XXSP,2013-06-25 00:29:00,
2013-06-24 17:35:00,63.1,57.8,29.77,SW,225,8.5,8.5,83,0.00,,,1.18,WUHU21623XXSP,2013-06-25 00:35:00,
2013-06-24 17:40:00,62.8,57.5,29.76,SSW,202,1.8,8.5,83,0.00,,,1.18,WUHU21623XXSP,2013-06-25 00:40:00,
2013-06-24 17:45:00,62.4,57.5,29.76,South,180,9.4,9.4,84,0.00,,,1.18,WUHU21623XXSP,2013-06-25 00:45:00,
2013-06-24 17:50:00,62.1,57.5,29.76,SW,225,6.0,9.4,85,0.00,,,1.18,WUHU21623XXSP,2013-06-25 00:50:00,
2013-06-24 17:55:00,61.9,57.3,29.76,SSW,202,6.3,6.3,85,0.00,,,1.18,WUHU21623XXSP,2013-06-25 00:55:00,
2013-06-24 18:00:00,61.5,57.2,29.77,SW,225,8.1,8.1,86,0.00,,,1.18,WUHU21623XXSP,2013-06-25 01:00:00,
2013-06-24 18:06:00,61.0,57.0,29.77,SSW,202,0.0,8.1,87,0.00,,,1.18,WUHU21623XXSP,2013-06-25 01:06:00,
2013-06-24 18:11:00,60.6,56.9,29.77,SSW,202,1.6,4.5,88,0.00,,,1.18,WUHU21623XXSP,2013-06-25 01:11:00,
2013-06-24 18:16:00,60.4,57.1,29.77,SSW,202,7.4,7.4,89,0.00,,,1.18,WUHU21623XXSP,2013-06-25 01:16:00,
2013-06-24 18:21:00,60.3,57.3,29.76,SSW,202,0.0,7.4,90,0.00,,,1.18,WUHU21623XXSP,2013-06-25 01:21:00,
2013-06-24 18:26:00,60.1,57.1,29.77,SSW,202,0.0,7.2,90,0.00,,,1.18,WUHU21623XXSP,2013-06-25 01:26:00,
2013-06-24 18:31:00,59.9,57.2,29.77,SSW,202,3.1,3.1,91,0.00,,,1.18,WUHU21623XXSP,2013-06-25 01:31:00,
2013-06-24 18:36:00,59.7,57.0,29.77,SW,225,3.4,7.8,91,0.00,,,1.18,WUHU21623XXSP,2013-06-25 01:36:00,
2013-06-24 18:41:00,59.7,57.0,29.77,SW,225,4.7,7.8,91,0.00,,,1.18,WUHU21623XXSP,2013-06-25 01:41:00,
2013-06-24 18:47:00,59.7,57.0,29.77,SW,225,7.2,8.3,91,0.00,,,1.18,WUHU21623XXSP,2013-06-25 01:47:00,
2013-06-24 18:52:00,59.7,57.0,29.78,SW,225,5.1,8.3,91,0.00,,,1.18,WUHU21623XXSP,2013-06-25 01:52:00,
2013-06-24 18:57:00,59.5,56.8,29.77,SW,225,6.9,6.9,91,0.00,,,1.18,WUHU21623XXSP,2013-06-25 01:57:00,
2013-06-24 19:02:00,59.2,56.2,29.77,SW,225,2.7,7.8,90,0.00,,,1.18,WUHU21623XXSP,2013-06-25 02:02:00,
2013-06-24 19:07:00,58.8,55.8,29.78,West,270,2.5,7.8,90,0.00,,,1.18,WUHU21623XXSP,2013-06-25 02:07:00,
2013-06-24 19:12:00,58.3,55.3,29.78,West,270,2.5,2.5,90,0.00,,,1.18,WUHU21623XXSP,2013-06-25 02:12:00,
2013-06-24 19:17:00,57.7,55.3,29.78,WSW,247,10.1,10.1,92,0.00,,,1.18,WUHU21623XXSP,2013-06-25 02:17:00,
2013-06-24 19:22:00,57.6,55.2,29.78,West,270,7.4,10.3,92,0.00,,,1.18,WUHU21623XXSP,2013-06-25 02:22:00,
2013-06-24 19:27:00,57.4,55.0,29.78,West,270,7.8,10.3,92,0.00,,,1.18,WUHU21623XXSP,2013-06-25 02:27:00,
2013-06-24 19:32:00,56.8,54.4,29.78,West,270,7.4,7.8,92,0.04,,,1.18,WUHU21623XXSP,2013-06-25 02:32:00,
2013-06-24 19:37:00,56.5,54.1,29.79,West,270,5.1,7.4,92,0.04,,,1.22,WUHU21623XXSP,2013-06-25 02:37:00,
2013-06-24 19:42:00,56.3,53.9,29.78,West,270,0.0,6.7,92,0.04,,,1.22,WUHU21623XXSP,2013-06-25 02:42:00,
2013-06-24 19:47:00,55.9,53.5,29.79,West,270,6.3,6.7,92,0.04,,,1.22,WUHU21623XXSP,2013-06-25 02:47:00,
2013-06-24 19:52:00,55.8,53.4,29.79,WSW,247,7.4,7.4,92,0.04,,,1.22,WUHU21623XXSP,2013-06-25 02:52:00,
2013-06-24 19:58:00,55.6,53.2,29.79,WSW,247,0.0,7.4,92,0.04,,,1.22,WUHU21623XXSP,2013-06-25 02:58:00,
2013-06-24 20:03:00,55.4,53.3,29.79,WSW,247,8.3,8.3,93,0.04,,,1.22,WUHU21623XXSP,2013-06-25 03:03:00,
2013-06-24 20:08:00,55.6,53.8,29.79,WSW,247,1.8,8.3,94,0.04,,,1.22,WUHU21623XXSP,2013-06-25 03:08:00,
2013-06-24 20:13:00,55.4,53.6,29.79,WSW,247,6.3,6.5,94,0.04,,,1.22,WUHU21623XXSP,2013-06-25 03:13:00,
2013-06-24 20:18:00,55.2,53.4,29.79,WSW,247,0.0,8.1,94,0.04,,,1.22,WUHU21623XXSP,2013-06-25 03:18:00,
2013-06-24 20:23:00,55.0,52.9,29.79,WSW,247,2.7,8.1,93,0.04,,,1.22,WUHU21623XXSP,2013-06-25 03:23:00,
2013-06-24 20:29:00,54.9,52.8,29.79,West,270,2.5,2.7,93,0.04,,,1.22,WUHU21623XXSP,2013-06-25 03:29:00,
2013-06-24 20:34:00,54.5,52.4,29.79,West,270,2.0,2.5,93,0.02,,,1.22,WUHU21623XXSP,2013-06-25 03:34:00,
2013-06-24 20:39:00,54.3,52.2,29.79,West,270,0.0,2.0,93,0.02,,,1.24,WUHU21623XXSP,2013-06-25 03:39:00,
2013-06-24 20:44:00,54.0,51.9,29.80,West,270,0.0,0.0,93,0.02,,,1.24,WUHU21623XXSP,2013-06-25 03:44:00,
2013-06-24 20:50:00,53.8,51.7,29.80,West,270,0.0,0.0,93,0.02,,,1.24,WUHU21623XXSP,2013-06-25 03:50:00,
2013-06-24 20:55:00,53.8,51.7,29.80,West,270,0.0,0.0,93,0.02,,,1.24,WUHU21623XXSP,2013-06-25 03:55:00,
2013-06-24 21:00:00,53.4,51.3,29.80,WSW,247,0.0,0.0,93,0.02,,,1.24,WUHU21623XXSP,2013-06-25 04:00:00,
2013-06-24 21:01:00,53.4,51.3,29.80,WSW,247,0.0,0.0,93,0.02,,,1.24,WUHU21623XXSP,2013-06-25 04:01:00,
2013-06-24 21:06:00,53.4,51.3,29.80,WSW,247,0.0,0.0,93,0.04,,,1.24,WUHU21623XXSP,2013-06-25 04:06:00,
2013-06-24 21:11:00,53.4,51.6,29.80,WSW,247,0.0,0.0,94,0.04,,,1.26,WUHU21623XXSP,2013-06-25 04:11:00,
2013-06-24 21:16:00,53.4,51.6,29.80,WSW,247,0.0,2.5,94,0.04,,,1.26,WUHU21623XXSP,2013-06-25 04:16:00,
2013-06-24 21:21:00,53.4,51.6,29.80,WSW,247,0.0,2.5,94,0.04,,,1.26,WUHU21623XXSP,2013-06-25 04:21:00,
2013-06-24 21:26:00,53.4,51.9,29.81,WSW,247,0.0,2.7,95,0.04,,,1.26,WUHU21623XXSP,2013-06-25 04:26:00,
2013-06-24 21:31:00,53.4,51.9,29.81,WSW,247,0.0,2.7,95,0.02,,,1.26,WUHU21623XXSP,2013-06-25 04:31:00,
2013-06-24 21:36:00,53.4,51.9,29.81,WSW,247,0.0,3.4,95,0.02,,,1.26,WUHU21623XXSP,2013-06-25 04:36:00,
2013-06-24 21:41:00,53.4,51.9,29.81,WSW,247,0.0,3.4,95,0.02,,,1.26,WUHU21623XXSP,2013-06-25 04:41:00,
2013-06-24 21:46:00,53.4,51.9,29.81,WSW,247,0.0,0.0,95,0.02,,,1.26,WUHU21623XXSP,2013-06-25 04:46:00,
2013-06-24 21:51:00,53.4,51.9,29.81,WSW,247,0.0,0.0,95,0.02,,,1.26,WUHU21623XXSP,2013-06-25 04:51:00,
2013-06-24 21:56:00,53.4,51.9,29.81,WSW,247,0.0,0.0,95,0.02,,,1.26,WUHU21623XXSP,2013-06-25 04:56:00,
2013-06-24 22:01:00,53.8,52.6,29.81,WSW,247,0.0,0.0,96,0.02,,,1.26,WUHU21623XXSP,2013-06-25 05:01:00,
2013-06-24 22:06:00,53.8,52.6,29.81,WSW,247,0.0,0.0,96,0.00,,,1.26,WUHU21623XXSP,2013-06-25 05:06:00,
2013-06-24 22:11:00,53.8,52.6,29.82,WSW,247,0.0,0.0,96,0.00,,,1.26,WUHU21623XXSP,2013-06-25 05:11:00,
2013-06-24 22:16:00,53.8,52.6,29.82,SW,225,6.5,6.5,96,0.00,,,1.26,WUHU21623XXSP,2013-06-25 05:16:00,
2013-06-24 22:21:00,53.8,52.6,29.82,SW,225,6.7,6.7,96,0.00,,,1.26,WUHU21623XXSP,2013-06-25 05:21:00,
2013-06-24 22:26:00,53.8,52.6,29.82,WSW,247,2.0,6.7,96,0.00,,,1.26,WUHU21623XXSP,2013-06-25 05:26:00,
2013-06-24 22:31:00,53.8,52.6,29.82,SW,225,7.4,7.4,96,0.00,,,1.26,WUHU21623XXSP,2013-06-25 05:31:00,
2013-06-24 22:36:00,53.8,52.6,29.81,SW,225,7.2,7.4,96,0.00,,,1.26,WUHU21623XXSP,2013-06-25 05:36:00,
2013-06-24 22:41:00,53.8,52.6,29.81,SW,225,4.3,7.4,96,0.00,,,1.26,WUHU21623XXSP,2013-06-25 05:41:00,
2013-06-24 22:46:00,53.8,52.6,29.82,SW,225,0.0,4.3,96,0.00,,,1.26,WUHU21623XXSP,2013-06-25 05:46:00,
2013-06-24 22:51:00,53.8,52.6,29.81,SW,225,0.0,4.3,96,0.00,,,1.26,WUHU21623XXSP,2013-06-25 05:51:00,
2013-06-24 22:56:00,53.8,52.6,29.82,SW,225,7.4,7.4,96,0.00,,,1.26,WUHU21623XXSP,2013-06-25 05:56:00,
2013-06-24 23:01:00,53.8,52.9,29.82,SSW,202,0.0,7.4,97,0.00,,,1.26,WUHU21623XXSP,2013-06-25 06:01:00,
2013-06-24 23:06:00,53.8,52.9,29.82,SSW,202,0.0,0.0,97,0.00,,,1.26,WUHU21623XXSP,2013-06-25 06:06:00,
2013-06-24 23:11:00,53.8,52.9,29.82,SSW,202,0.0,0.0,97,0.00,,,1.26,WUHU21623XXSP,2013-06-25 06:11:00,
2013-06-24 23:16:00,53.6,52.7,29.82,SSW,202,0.0,0.0,97,0.00,,,1.26,WUHU21623XXSP,2013-06-25 06:16:00,
2013-06-24 23:21:00,53.4,52.5,29.82,SSW,202,0.0,3.8,97,0.00,,,1.26,WUHU21623XXSP,2013-06-25 06:21:00,
2013-06-24 23:26:00,53.4,52.5,29.82,SW,225,0.0,3.8,97,0.00,,,1.26,WUHU21623XXSP,2013-06-25 06:26:00,
2013-06-24 23:31:00,53.4,52.5,29.82,SW,225,0.0,0.0,97,0.00,,,1.26,WUHU21623XXSP,2013-06-25 06:31:00,
2013-06-24 23:36:00,53.4,52.5,29.82,SW,225,0.0,0.0,97,0.00,,,1.26,WUHU21623XXSP,2013-06-25 06:36:00,
2013-06-24 23:41:00,53.2,52.3,29.83,SW,225,0.0,0.0,97,0.00,,,1.26,WUHU21623XXSP,2013-06-25 06:41:00,
2013-06-24 23:46:00,52.9,52.0,29.83,SW,225,0.7,0.7,97,0.00,,,1.26,WUHU21623XXSP,2013-06-25 06:46:00,
2013-06-24 23:51:00,52.7,51.8,29.83,SW,225,0.7,0.7,97,0.00,,,1.26,WUHU21623XXSP,2013-06-25 06:51:00,
2013-06-24 23:56:00,52.5,51.6,29.83,SW,225,0.0,0.7,97,0.00,,,1.26,WUHU21623XXSP,2013-06-25 06:56:00,